sensor_id;sensor_type;location;lat;lon;timestamp;temperature;humidity
1447;DHT22;717;51.522;7.266;2022-09-20T00:01:26;16.50;99.90
1447;DHT22;717;51.522;7.266;2022-09-20T00:03:55;16.50;99.90
1447;DHT22;717;51.522;7.266;2022-09-20T00:06:24;16.50;99.90
1447;DHT22;717;51.522;7.266;2022-09-20T00:08:51;16.50;99.90
1447;DHT22;717;51.522;7.266;2022-09-20T00:11:19;16.50;99.90
1447;DHT22;717;51.522;7.266;2022-09-20T00:13:48;16.50;99.90
1447;DHT22;717;51.522;7.266;2022-09-20T00:16:17;16.50;99.90
1447;DHT22;717;51.522;7.266;2022-09-20T00:18:48;16.40;99.90
1447;DHT22;717;51.522;7.266;2022-09-20T00:21:15;16.40;99.90
1447;DHT22;717;51.522;7.266;2022-09-20T00:23:43;16.50;99.90
1447;DHT22;717;51.522;7.266;2022-09-20T00:26:10;16.40;99.90
1447;DHT22;717;51.522;7.266;2022-09-20T00:28:37;16.40;99.90
1447;DHT22;717;51.522;7.266;2022-09-20T00:31:04;16.40;99.90
1447;DHT22;717;51.522;7.266;2022-09-20T00:33:32;16.40;99.90
1447;DHT22;717;51.522;7.266;2022-09-20T00:36:15;16.40;99.90
1447;DHT22;717;51.522;7.266;2022-09-20T00:38:42;16.40;99.90
1447;DHT22;717;51.522;7.266;2022-09-20T00:41:08;16.40;99.90
1447;DHT22;717;51.522;7.266;2022-09-20T00:43:37;16.40;99.90
1447;DHT22;717;51.522;7.266;2022-09-20T00:46:13;16.40;99.90
1447;DHT22;717;51.522;7.266;2022-09-20T00:48:44;16.40;99.90
1447;DHT22;717;51.522;7.266;2022-09-20T00:51:16;16.40;99.90
1447;DHT22;717;51.522;7.266;2022-09-20T00:53:46;16.40;99.90
1447;DHT22;717;51.522;7.266;2022-09-20T00:56:16;16.40;99.90
1447;DHT22;717;51.522;7.266;2022-09-20T00:58:48;16.40;99.90
1447;DHT22;717;51.522;7.266;2022-09-20T01:01:17;16.40;99.90
1447;DHT22;717;51.522;7.266;2022-09-20T01:03:44;16.40;99.90
1447;DHT22;717;51.522;7.266;2022-09-20T01:06:16;16.40;99.90
1447;DHT22;717;51.522;7.266;2022-09-20T01:08:46;16.40;99.90
1447;DHT22;717;51.522;7.266;2022-09-20T01:11:15;16.30;99.90
1447;DHT22;717;51.522;7.266;2022-09-20T01:13:41;16.30;99.90
1447;DHT22;717;51.522;7.266;2022-09-20T01:16:10;16.30;99.90
1447;DHT22;717;51.522;7.266;2022-09-20T01:18:38;16.30;99.90
1447;DHT22;717;51.522;7.266;2022-09-20T01:21:08;16.40;99.90
1447;DHT22;717;51.522;7.266;2022-09-20T01:23:47;16.30;99.90
1447;DHT22;717;51.522;7.266;2022-09-20T01:26:41;16.30;99.90
1447;DHT22;717;51.522;7.266;2022-09-20T01:29:38;16.30;99.90
1447;DHT22;717;51.522;7.266;2022-09-20T01:32:12;16.30;99.90
1447;DHT22;717;51.522;7.266;2022-09-20T01:34:45;16.30;99.90
1447;DHT22;717;51.522;7.266;2022-09-20T01:37:17;16.30;99.90
1447;DHT22;717;51.522;7.266;2022-09-20T01:39:53;16.20;99.90
1447;DHT22;717;51.522;7.266;2022-09-20T01:42:27;16.20;99.90
1447;DHT22;717;51.522;7.266;2022-09-20T01:45:01;16.20;99.90
1447;DHT22;717;51.522;7.266;2022-09-20T01:47:34;16.10;99.90
1447;DHT22;717;51.522;7.266;2022-09-20T01:50:13;16.10;99.90
1447;DHT22;717;51.522;7.266;2022-09-20T01:55:52;16.20;99.90
1447;DHT22;717;51.522;7.266;2022-09-20T01:59:06;16.10;99.90
1447;DHT22;717;51.522;7.266;2022-09-20T02:01:55;16.10;99.90
1447;DHT22;717;51.522;7.266;2022-09-20T02:13:29;16.00;99.90
1447;DHT22;717;51.522;7.266;2022-09-20T02:16:25;16.10;99.90
1447;DHT22;717;51.522;7.266;2022-09-20T02:19:14;16.10;99.90
1447;DHT22;717;51.522;7.266;2022-09-20T02:21:52;16.00;99.90
1447;DHT22;717;51.522;7.266;2022-09-20T02:24:28;16.10;99.90
1447;DHT22;717;51.522;7.266;2022-09-20T02:27:06;16.10;99.90
1447;DHT22;717;51.522;7.266;2022-09-20T02:29:43;16.10;99.90
1447;DHT22;717;51.522;7.266;2022-09-20T02:32:24;16.10;99.90
1447;DHT22;717;51.522;7.266;2022-09-20T02:35:24;16.10;99.90
1447;DHT22;717;51.522;7.266;2022-09-20T02:38:00;16.10;99.90
1447;DHT22;717;51.522;7.266;2022-09-20T02:40:45;16.10;99.90
1447;DHT22;717;51.522;7.266;2022-09-20T02:43:21;16.10;99.90
1447;DHT22;717;51.522;7.266;2022-09-20T02:45:57;16.10;99.90
1447;DHT22;717;51.522;7.266;2022-09-20T02:48:32;16.10;99.90
1447;DHT22;717;51.522;7.266;2022-09-20T02:51:09;16.00;99.90
1447;DHT22;717;51.522;7.266;2022-09-20T02:53:44;16.00;99.90
1447;DHT22;717;51.522;7.266;2022-09-20T02:56:18;16.00;99.90
1447;DHT22;717;51.522;7.266;2022-09-20T02:58:56;16.00;99.90
1447;DHT22;717;51.522;7.266;2022-09-20T03:01:35;16.00;99.90
1447;DHT22;717;51.522;7.266;2022-09-20T03:04:15;16.00;99.90
1447;DHT22;717;51.522;7.266;2022-09-20T03:06:50;16.00;99.90
1447;DHT22;717;51.522;7.266;2022-09-20T03:09:27;16.00;99.90
1447;DHT22;717;51.522;7.266;2022-09-20T03:12:03;16.00;99.90
1447;DHT22;717;51.522;7.266;2022-09-20T03:14:36;16.00;99.90
1447;DHT22;717;51.522;7.266;2022-09-20T03:17:16;16.00;99.90
1447;DHT22;717;51.522;7.266;2022-09-20T03:20:07;16.00;99.90
1447;DHT22;717;51.522;7.266;2022-09-20T03:22:47;16.00;99.90
1447;DHT22;717;51.522;7.266;2022-09-20T03:25:31;15.90;99.90
1447;DHT22;717;51.522;7.266;2022-09-20T03:28:07;16.00;99.90
1447;DHT22;717;51.522;7.266;2022-09-20T03:30:50;15.90;99.90
1447;DHT22;717;51.522;7.266;2022-09-20T03:33:26;15.90;99.90
1447;DHT22;717;51.522;7.266;2022-09-20T03:36:08;16.00;99.90
1447;DHT22;717;51.522;7.266;2022-09-20T03:39:01;15.90;99.90
1447;DHT22;717;51.522;7.266;2022-09-20T03:41:43;15.90;99.90
1447;DHT22;717;51.522;7.266;2022-09-20T03:44:30;16.00;99.90
1447;DHT22;717;51.522;7.266;2022-09-20T03:47:12;15.90;99.90
1447;DHT22;717;51.522;7.266;2022-09-20T03:50:02;15.90;99.90
1447;DHT22;717;51.522;7.266;2022-09-20T03:52:50;16.00;99.90
1447;DHT22;717;51.522;7.266;2022-09-20T03:58:45;16.00;99.90
1447;DHT22;717;51.522;7.266;2022-09-20T04:01:33;15.90;99.90
1447;DHT22;717;51.522;7.266;2022-09-20T04:04:11;15.90;99.90
1447;DHT22;717;51.522;7.266;2022-09-20T04:07:10;15.90;99.90
1447;DHT22;717;51.522;7.266;2022-09-20T04:10:05;15.90;99.90
1447;DHT22;717;51.522;7.266;2022-09-20T04:12:43;15.90;99.90
1447;DHT22;717;51.522;7.266;2022-09-20T04:15:25;15.90;99.90
1447;DHT22;717;51.522;7.266;2022-09-20T04:17:59;15.90;99.90
1447;DHT22;717;51.522;7.266;2022-09-20T04:20:33;15.90;99.90
1447;DHT22;717;51.522;7.266;2022-09-20T04:23:11;15.90;99.90
1447;DHT22;717;51.522;7.266;2022-09-20T04:25:41;15.90;99.90
1447;DHT22;717;51.522;7.266;2022-09-20T04:28:13;15.90;99.90
1447;DHT22;717;51.522;7.266;2022-09-20T04:30:43;15.90;99.90
1447;DHT22;717;51.522;7.266;2022-09-20T04:33:15;15.90;99.90
1447;DHT22;717;51.522;7.266;2022-09-20T04:35:53;15.90;99.90
1447;DHT22;717;51.522;7.266;2022-09-20T04:38:39;15.90;99.90
1447;DHT22;717;51.522;7.266;2022-09-20T04:41:18;15.80;99.90
1447;DHT22;717;51.522;7.266;2022-09-20T04:53:21;15.80;99.90
1447;DHT22;717;51.522;7.266;2022-09-20T04:55:59;15.80;99.90
1447;DHT22;717;51.522;7.266;2022-09-20T04:58:39;15.70;99.90
1447;DHT22;717;51.522;7.266;2022-09-20T05:07:54;15.80;99.90
1447;DHT22;717;51.522;7.266;2022-09-20T05:10:51;15.80;99.90
1447;DHT22;717;51.522;7.266;2022-09-20T05:13:32;15.80;99.90
1447;DHT22;717;51.522;7.266;2022-09-20T05:16:04;15.80;99.90
1447;DHT22;717;51.522;7.266;2022-09-20T05:18:55;15.80;99.90
1447;DHT22;717;51.522;7.266;2022-09-20T05:21:49;15.80;99.90
1447;DHT22;717;51.522;7.266;2022-09-20T05:27:17;15.90;99.90
1447;DHT22;717;51.522;7.266;2022-09-20T05:29:51;15.90;99.90
1447;DHT22;717;51.522;7.266;2022-09-20T05:32:23;15.90;99.90
1447;DHT22;717;51.522;7.266;2022-09-20T05:34:59;15.90;99.90
1447;DHT22;717;51.522;7.266;2022-09-20T05:37:38;16.00;99.90
1447;DHT22;717;51.522;7.266;2022-09-20T05:40:17;16.00;99.90
1447;DHT22;717;51.522;7.266;2022-09-20T05:42:50;16.00;99.90
1447;DHT22;717;51.522;7.266;2022-09-20T05:45:32;16.00;99.90
1447;DHT22;717;51.522;7.266;2022-09-20T05:48:12;16.00;99.90
1447;DHT22;717;51.522;7.266;2022-09-20T05:50:45;16.00;99.90
1447;DHT22;717;51.522;7.266;2022-09-20T05:53:45;16.00;99.90
1447;DHT22;717;51.522;7.266;2022-09-20T05:56:25;16.00;99.90
1447;DHT22;717;51.522;7.266;2022-09-20T05:59:01;16.00;99.90
1447;DHT22;717;51.522;7.266;2022-09-20T06:01:33;16.00;99.90
1447;DHT22;717;51.522;7.266;2022-09-20T06:04:11;16.10;99.90
1447;DHT22;717;51.522;7.266;2022-09-20T06:06:48;16.10;99.90
1447;DHT22;717;51.522;7.266;2022-09-20T06:09:32;16.00;99.90
1447;DHT22;717;51.522;7.266;2022-09-20T06:12:18;16.10;99.90
1447;DHT22;717;51.522;7.266;2022-09-20T06:14:50;16.00;99.90
1447;DHT22;717;51.522;7.266;2022-09-20T06:17:27;16.10;99.90
1447;DHT22;717;51.522;7.266;2022-09-20T06:20:10;16.10;99.90
1447;DHT22;717;51.522;7.266;2022-09-20T06:22:41;16.10;99.90
1447;DHT22;717;51.522;7.266;2022-09-20T06:25:18;16.10;99.90
1447;DHT22;717;51.522;7.266;2022-09-20T06:27:52;16.10;99.90
1447;DHT22;717;51.522;7.266;2022-09-20T06:30:23;16.20;99.90
1447;DHT22;717;51.522;7.266;2022-09-20T06:32:58;16.20;99.90
1447;DHT22;717;51.522;7.266;2022-09-20T06:35:31;16.10;99.90
1447;DHT22;717;51.522;7.266;2022-09-20T06:38:12;16.10;99.90
1447;DHT22;717;51.522;7.266;2022-09-20T06:41:02;16.10;99.90
1447;DHT22;717;51.522;7.266;2022-09-20T06:43:46;16.10;99.90
1447;DHT22;717;51.522;7.266;2022-09-20T06:46:14;16.20;99.90
1447;DHT22;717;51.522;7.266;2022-09-20T06:48:41;16.20;99.90
1447;DHT22;717;51.522;7.266;2022-09-20T06:51:08;16.20;99.90
1447;DHT22;717;51.522;7.266;2022-09-20T06:53:38;16.20;99.90
1447;DHT22;717;51.522;7.266;2022-09-20T06:56:13;16.30;99.90
1447;DHT22;717;51.522;7.266;2022-09-20T06:58:42;16.30;99.90
1447;DHT22;717;51.522;7.266;2022-09-20T07:01:08;16.30;99.90
1447;DHT22;717;51.522;7.266;2022-09-20T07:03:35;16.30;99.90
1447;DHT22;717;51.522;7.266;2022-09-20T07:06:03;16.30;99.90
1447;DHT22;717;51.522;7.266;2022-09-20T07:08:30;16.30;99.90
1447;DHT22;717;51.522;7.266;2022-09-20T07:11:02;16.30;99.90
1447;DHT22;717;51.522;7.266;2022-09-20T07:13:31;16.30;99.90
1447;DHT22;717;51.522;7.266;2022-09-20T07:16:02;16.30;99.90
1447;DHT22;717;51.522;7.266;2022-09-20T07:18:29;16.30;99.90
1447;DHT22;717;51.522;7.266;2022-09-20T07:20:58;16.40;99.90
1447;DHT22;717;51.522;7.266;2022-09-20T07:23:24;16.40;99.90
1447;DHT22;717;51.522;7.266;2022-09-20T07:25:52;16.40;99.90
1447;DHT22;717;51.522;7.266;2022-09-20T07:28:19;16.40;99.90
1447;DHT22;717;51.522;7.266;2022-09-20T07:30:47;16.50;99.90
1447;DHT22;717;51.522;7.266;2022-09-20T07:33:14;16.40;99.90
1447;DHT22;717;51.522;7.266;2022-09-20T07:35:46;16.40;99.90
1447;DHT22;717;51.522;7.266;2022-09-20T07:38:13;16.40;99.90
1447;DHT22;717;51.522;7.266;2022-09-20T07:40:40;16.50;99.90
1447;DHT22;717;51.522;7.266;2022-09-20T07:43:07;16.50;99.90
1447;DHT22;717;51.522;7.266;2022-09-20T07:45:35;16.50;99.90
1447;DHT22;717;51.522;7.266;2022-09-20T07:48:05;16.50;99.90
1447;DHT22;717;51.522;7.266;2022-09-20T07:50:34;16.50;99.90
1447;DHT22;717;51.522;7.266;2022-09-20T07:53:01;16.50;99.90
1447;DHT22;717;51.522;7.266;2022-09-20T07:55:29;16.50;99.90
1447;DHT22;717;51.522;7.266;2022-09-20T07:57:56;16.50;99.90
1447;DHT22;717;51.522;7.266;2022-09-20T08:00:23;16.50;99.90
1447;DHT22;717;51.522;7.266;2022-09-20T08:02:57;16.60;99.90
1447;DHT22;717;51.522;7.266;2022-09-20T08:05:26;16.60;99.90
1447;DHT22;717;51.522;7.266;2022-09-20T08:07:54;16.60;99.90
1447;DHT22;717;51.522;7.266;2022-09-20T08:10:21;16.60;99.90
1447;DHT22;717;51.522;7.266;2022-09-20T08:12:49;16.60;99.90
1447;DHT22;717;51.522;7.266;2022-09-20T08:15:16;16.70;99.90
1447;DHT22;717;51.522;7.266;2022-09-20T08:17:46;16.70;99.90
1447;DHT22;717;51.522;7.266;2022-09-20T08:20:13;16.70;99.90
1447;DHT22;717;51.522;7.266;2022-09-20T08:22:41;16.70;99.90
1447;DHT22;717;51.522;7.266;2022-09-20T08:25:09;16.70;99.90
1447;DHT22;717;51.522;7.266;2022-09-20T08:27:36;16.70;99.90
1447;DHT22;717;51.522;7.266;2022-09-20T08:30:03;16.70;99.90
1447;DHT22;717;51.522;7.266;2022-09-20T08:32:30;16.70;99.90
1447;DHT22;717;51.522;7.266;2022-09-20T08:34:58;16.80;99.90
1447;DHT22;717;51.522;7.266;2022-09-20T08:37:24;16.80;99.90
1447;DHT22;717;51.522;7.266;2022-09-20T08:39:52;16.80;99.90
1447;DHT22;717;51.522;7.266;2022-09-20T08:42:23;16.90;99.90
1447;DHT22;717;51.522;7.266;2022-09-20T08:44:55;16.90;99.90
1447;DHT22;717;51.522;7.266;2022-09-20T08:47:25;16.90;99.90
1447;DHT22;717;51.522;7.266;2022-09-20T08:49:53;17.00;99.90
1447;DHT22;717;51.522;7.266;2022-09-20T08:52:26;17.00;99.90
1447;DHT22;717;51.522;7.266;2022-09-20T08:54:56;17.00;99.90
1447;DHT22;717;51.522;7.266;2022-09-20T08:57:26;17.00;99.90
1447;DHT22;717;51.522;7.266;2022-09-20T08:59:54;17.00;99.90
1447;DHT22;717;51.522;7.266;2022-09-20T09:02:21;17.00;99.90
1447;DHT22;717;51.522;7.266;2022-09-20T09:04:49;17.00;99.90
1447;DHT22;717;51.522;7.266;2022-09-20T09:07:19;17.10;99.90
1447;DHT22;717;51.522;7.266;2022-09-20T09:09:48;17.10;99.90
1447;DHT22;717;51.522;7.266;2022-09-20T09:12:20;17.20;99.90
1447;DHT22;717;51.522;7.266;2022-09-20T09:14:49;17.20;99.90
1447;DHT22;717;51.522;7.266;2022-09-20T09:17:22;17.20;99.90
1447;DHT22;717;51.522;7.266;2022-09-20T09:19:51;17.30;99.90
1447;DHT22;717;51.522;7.266;2022-09-20T09:22:20;17.30;99.90
1447;DHT22;717;51.522;7.266;2022-09-20T09:25:26;17.30;99.90
1447;DHT22;717;51.522;7.266;2022-09-20T09:28:00;17.30;99.90
1447;DHT22;717;51.522;7.266;2022-09-20T09:30:30;17.30;99.90
1447;DHT22;717;51.522;7.266;2022-09-20T09:33:18;17.30;99.90
1447;DHT22;717;51.522;7.266;2022-09-20T09:35:56;17.40;99.90
1447;DHT22;717;51.522;7.266;2022-09-20T09:38:25;17.40;99.90
1447;DHT22;717;51.522;7.266;2022-09-20T09:40:54;17.40;99.90
1447;DHT22;717;51.522;7.266;2022-09-20T09:43:25;17.40;99.90
1447;DHT22;717;51.522;7.266;2022-09-20T09:45:54;17.40;99.90
1447;DHT22;717;51.522;7.266;2022-09-20T09:48:25;17.40;99.90
1447;DHT22;717;51.522;7.266;2022-09-20T09:51:10;17.50;99.90
1447;DHT22;717;51.522;7.266;2022-09-20T09:53:40;17.50;99.90
1447;DHT22;717;51.522;7.266;2022-09-20T09:59:22;17.60;99.90
1447;DHT22;717;51.522;7.266;2022-09-20T10:01:59;17.60;99.90
1447;DHT22;717;51.522;7.266;2022-09-20T10:04:34;17.70;99.90
1447;DHT22;717;51.522;7.266;2022-09-20T10:07:08;17.70;99.90
1447;DHT22;717;51.522;7.266;2022-09-20T10:09:56;17.70;99.90
1447;DHT22;717;51.522;7.266;2022-09-20T10:12:43;17.80;99.90
1447;DHT22;717;51.522;7.266;2022-09-20T10:15:29;17.80;99.90
1447;DHT22;717;51.522;7.266;2022-09-20T10:18:20;17.80;99.90
1447;DHT22;717;51.522;7.266;2022-09-20T10:20:57;17.90;99.90
1447;DHT22;717;51.522;7.266;2022-09-20T10:23:38;17.80;99.90
1447;DHT22;717;51.522;7.266;2022-09-20T10:26:17;17.90;99.90
1447;DHT22;717;51.522;7.266;2022-09-20T10:28:56;17.80;99.90
1447;DHT22;717;51.522;7.266;2022-09-20T10:31:41;17.90;99.90
1447;DHT22;717;51.522;7.266;2022-09-20T10:34:27;17.90;99.90
1447;DHT22;717;51.522;7.266;2022-09-20T10:37:00;17.90;99.90
1447;DHT22;717;51.522;7.266;2022-09-20T10:39:30;17.90;99.90
1447;DHT22;717;51.522;7.266;2022-09-20T10:42:06;18.00;99.90
1447;DHT22;717;51.522;7.266;2022-09-20T10:45:03;18.00;99.90
1447;DHT22;717;51.522;7.266;2022-09-20T10:47:39;18.00;99.90
1447;DHT22;717;51.522;7.266;2022-09-20T10:50:18;18.00;99.90
1447;DHT22;717;51.522;7.266;2022-09-20T10:52:59;18.10;99.90
1447;DHT22;717;51.522;7.266;2022-09-20T10:55:36;18.10;99.90
1447;DHT22;717;51.522;7.266;2022-09-20T11:01:19;18.20;99.90
1447;DHT22;717;51.522;7.266;2022-09-20T11:04:10;18.30;99.90
1447;DHT22;717;51.522;7.266;2022-09-20T11:06:49;18.30;99.90
1447;DHT22;717;51.522;7.266;2022-09-20T11:09:20;18.40;99.90
1447;DHT22;717;51.522;7.266;2022-09-20T11:11:51;18.40;99.90
1447;DHT22;717;51.522;7.266;2022-09-20T11:14:22;18.40;99.90
1447;DHT22;717;51.522;7.266;2022-09-20T11:17:00;18.50;99.90
1447;DHT22;717;51.522;7.266;2022-09-20T11:19:33;18.50;99.90
1447;DHT22;717;51.522;7.266;2022-09-20T11:22:06;18.60;99.90
1447;DHT22;717;51.522;7.266;2022-09-20T11:24:37;18.60;99.90
1447;DHT22;717;51.522;7.266;2022-09-20T11:27:14;18.60;99.90
1447;DHT22;717;51.522;7.266;2022-09-20T11:29:45;18.60;99.90
1447;DHT22;717;51.522;7.266;2022-09-20T11:32:21;18.60;99.90
1447;DHT22;717;51.522;7.266;2022-09-20T11:34:54;18.70;99.90
1447;DHT22;717;51.522;7.266;2022-09-20T11:37:30;18.70;99.90
1447;DHT22;717;51.522;7.266;2022-09-20T11:40:00;18.70;99.90
1447;DHT22;717;51.522;7.266;2022-09-20T11:42:33;18.70;99.90
1447;DHT22;717;51.522;7.266;2022-09-20T11:45:01;18.70;99.90
1447;DHT22;717;51.522;7.266;2022-09-20T11:47:32;18.70;99.90
1447;DHT22;717;51.522;7.266;2022-09-20T11:50:38;18.70;99.90
1447;DHT22;717;51.522;7.266;2022-09-20T11:53:20;18.70;99.90
1447;DHT22;717;51.522;7.266;2022-09-20T11:55:54;18.80;99.90
1447;DHT22;717;51.522;7.266;2022-09-20T11:58:24;18.80;99.90
1447;DHT22;717;51.522;7.266;2022-09-20T12:00:54;18.80;99.90
1447;DHT22;717;51.522;7.266;2022-09-20T12:03:27;18.90;99.90
1447;DHT22;717;51.522;7.266;2022-09-20T12:05:59;18.90;99.90
1447;DHT22;717;51.522;7.266;2022-09-20T12:08:29;18.90;99.90
1447;DHT22;717;51.522;7.266;2022-09-20T12:11:00;18.90;99.90
1447;DHT22;717;51.522;7.266;2022-09-20T12:13:29;18.90;99.90
1447;DHT22;717;51.522;7.266;2022-09-20T12:15:59;19.00;99.90
1447;DHT22;717;51.522;7.266;2022-09-20T12:18:30;19.00;99.90
1447;DHT22;717;51.522;7.266;2022-09-20T12:21:16;19.10;99.90
1447;DHT22;717;51.522;7.266;2022-09-20T12:24:20;19.10;99.90
1447;DHT22;717;51.522;7.266;2022-09-20T12:26:52;19.10;99.90
1447;DHT22;717;51.522;7.266;2022-09-20T12:32:45;19.20;99.90
1447;DHT22;717;51.522;7.266;2022-09-20T12:38:37;19.20;99.80
1447;DHT22;717;51.522;7.266;2022-09-20T12:41:10;19.20;99.70
1447;DHT22;717;51.522;7.266;2022-09-20T12:43:56;19.20;99.60
1447;DHT22;717;51.522;7.266;2022-09-20T12:46:43;19.20;99.50
1447;DHT22;717;51.522;7.266;2022-09-20T12:49:21;19.20;99.20
1447;DHT22;717;51.522;7.266;2022-09-20T12:52:24;19.30;98.80
1447;DHT22;717;51.522;7.266;2022-09-20T12:55:08;19.40;98.80
1447;DHT22;717;51.522;7.266;2022-09-20T12:57:36;19.40;98.20
1447;DHT22;717;51.522;7.266;2022-09-20T13:00:06;19.40;98.00
1447;DHT22;717;51.522;7.266;2022-09-20T13:02:56;19.50;98.10
1447;DHT22;717;51.522;7.266;2022-09-20T13:05:32;19.60;98.10
1447;DHT22;717;51.522;7.266;2022-09-20T13:08:02;19.60;98.10
1447;DHT22;717;51.522;7.266;2022-09-20T13:10:35;19.60;97.80
1447;DHT22;717;51.522;7.266;2022-09-20T13:13:13;19.60;97.60
1447;DHT22;717;51.522;7.266;2022-09-20T13:15:47;19.60;97.60
1447;DHT22;717;51.522;7.266;2022-09-20T13:18:15;19.60;97.60
1447;DHT22;717;51.522;7.266;2022-09-20T13:20:44;19.60;97.50
1447;DHT22;717;51.522;7.266;2022-09-20T13:23:18;19.60;97.40
1447;DHT22;717;51.522;7.266;2022-09-20T13:25:47;19.60;97.50
1447;DHT22;717;51.522;7.266;2022-09-20T13:28:23;19.60;97.50
1447;DHT22;717;51.522;7.266;2022-09-20T13:31:25;19.60;97.40
1447;DHT22;717;51.522;7.266;2022-09-20T13:33:53;19.60;97.40
1447;DHT22;717;51.522;7.266;2022-09-20T13:36:25;19.60;97.30
1447;DHT22;717;51.522;7.266;2022-09-20T13:38:54;19.60;97.20
1447;DHT22;717;51.522;7.266;2022-09-20T13:41:27;19.50;97.20
1447;DHT22;717;51.522;7.266;2022-09-20T13:43:57;19.50;97.40
1447;DHT22;717;51.522;7.266;2022-09-20T13:46:28;19.50;97.40
1447;DHT22;717;51.522;7.266;2022-09-20T13:49:08;19.50;97.30
1447;DHT22;717;51.522;7.266;2022-09-20T13:51:35;19.50;97.10
1447;DHT22;717;51.522;7.266;2022-09-20T13:54:17;19.50;97.10
1447;DHT22;717;51.522;7.266;2022-09-20T13:56:48;19.40;97.00
1447;DHT22;717;51.522;7.266;2022-09-20T13:59:15;19.40;96.90
1447;DHT22;717;51.522;7.266;2022-09-20T14:01:48;19.40;96.90
1447;DHT22;717;51.522;7.266;2022-09-20T14:04:17;19.40;97.00
1447;DHT22;717;51.522;7.266;2022-09-20T14:06:46;19.40;97.00
1447;DHT22;717;51.522;7.266;2022-09-20T14:09:19;19.30;96.90
1447;DHT22;717;51.522;7.266;2022-09-20T14:11:48;19.40;96.90
1447;DHT22;717;51.522;7.266;2022-09-20T14:14:16;19.30;96.90
1447;DHT22;717;51.522;7.266;2022-09-20T14:16:44;19.30;96.90
1447;DHT22;717;51.522;7.266;2022-09-20T14:19:15;19.30;96.90
1447;DHT22;717;51.522;7.266;2022-09-20T14:21:43;19.30;97.00
1447;DHT22;717;51.522;7.266;2022-09-20T14:24:26;19.30;97.10
1447;DHT22;717;51.522;7.266;2022-09-20T14:27:11;19.30;97.10
1447;DHT22;717;51.522;7.266;2022-09-20T14:29:41;19.30;97.00
1447;DHT22;717;51.522;7.266;2022-09-20T14:35:04;19.30;97.00
1447;DHT22;717;51.522;7.266;2022-09-20T14:37:34;19.30;96.80
1447;DHT22;717;51.522;7.266;2022-09-20T14:40:04;19.30;96.70
1447;DHT22;717;51.522;7.266;2022-09-20T14:42:38;19.30;97.00
1447;DHT22;717;51.522;7.266;2022-09-20T14:45:17;19.30;96.80
1447;DHT22;717;51.522;7.266;2022-09-20T14:47:56;19.30;96.80
1447;DHT22;717;51.522;7.266;2022-09-20T14:50:26;19.30;96.80
1447;DHT22;717;51.522;7.266;2022-09-20T14:53:04;19.30;96.80
1447;DHT22;717;51.522;7.266;2022-09-20T14:55:32;19.30;96.80
1447;DHT22;717;51.522;7.266;2022-09-20T14:58:04;19.30;96.90
1447;DHT22;717;51.522;7.266;2022-09-20T15:00:46;19.30;96.80
1447;DHT22;717;51.522;7.266;2022-09-20T15:03:16;19.30;96.90
1447;DHT22;717;51.522;7.266;2022-09-20T15:05:46;19.30;97.00
1447;DHT22;717;51.522;7.266;2022-09-20T15:08:15;19.30;97.10
1447;DHT22;717;51.522;7.266;2022-09-20T15:10:44;19.30;97.10
1447;DHT22;717;51.522;7.266;2022-09-20T15:13:13;19.30;97.10
1447;DHT22;717;51.522;7.266;2022-09-20T15:15:40;19.20;97.10
1447;DHT22;717;51.522;7.266;2022-09-20T15:18:15;19.30;97.20
1447;DHT22;717;51.522;7.266;2022-09-20T15:20:44;19.30;97.20
1447;DHT22;717;51.522;7.266;2022-09-20T15:23:11;19.30;97.10
1447;DHT22;717;51.522;7.266;2022-09-20T15:25:38;19.30;97.10
1447;DHT22;717;51.522;7.266;2022-09-20T15:28:04;19.30;97.00
1447;DHT22;717;51.522;7.266;2022-09-20T15:30:33;19.40;97.00
1447;DHT22;717;51.522;7.266;2022-09-20T15:33:00;19.40;96.90
1447;DHT22;717;51.522;7.266;2022-09-20T15:35:27;19.40;96.90
1447;DHT22;717;51.522;7.266;2022-09-20T15:37:54;19.40;96.90
1447;DHT22;717;51.522;7.266;2022-09-20T15:40:21;19.40;96.80
1447;DHT22;717;51.522;7.266;2022-09-20T15:42:53;19.40;96.70
1447;DHT22;717;51.522;7.266;2022-09-20T15:45:21;19.40;96.70
1447;DHT22;717;51.522;7.266;2022-09-20T15:47:50;19.40;96.70
1447;DHT22;717;51.522;7.266;2022-09-20T15:50:20;19.40;96.70
1447;DHT22;717;51.522;7.266;2022-09-20T15:52:48;19.40;96.60
1447;DHT22;717;51.522;7.266;2022-09-20T15:55:16;19.40;96.60
1447;DHT22;717;51.522;7.266;2022-09-20T15:57:43;19.40;96.70
1447;DHT22;717;51.522;7.266;2022-09-20T16:00:10;19.40;96.80
1447;DHT22;717;51.522;7.266;2022-09-20T16:02:37;19.40;96.80
1447;DHT22;717;51.522;7.266;2022-09-20T16:05:06;19.40;96.90
1447;DHT22;717;51.522;7.266;2022-09-20T16:07:34;19.40;96.90
1447;DHT22;717;51.522;7.266;2022-09-20T16:10:01;19.40;97.00
1447;DHT22;717;51.522;7.266;2022-09-20T16:12:28;19.40;97.00
1447;DHT22;717;51.522;7.266;2022-09-20T16:14:55;19.40;97.00
1447;DHT22;717;51.522;7.266;2022-09-20T16:17:22;19.40;97.00
1447;DHT22;717;51.522;7.266;2022-09-20T16:20:11;19.40;97.10
1447;DHT22;717;51.522;7.266;2022-09-20T16:22:37;19.40;97.00
1447;DHT22;717;51.522;7.266;2022-09-20T16:25:05;19.40;97.00
1447;DHT22;717;51.522;7.266;2022-09-20T16:27:33;19.30;96.90
1447;DHT22;717;51.522;7.266;2022-09-20T16:30:00;19.30;96.90
1447;DHT22;717;51.522;7.266;2022-09-20T16:32:27;19.30;96.80
1447;DHT22;717;51.522;7.266;2022-09-20T16:34:54;19.30;96.90
1447;DHT22;717;51.522;7.266;2022-09-20T16:37:24;19.20;96.80
1447;DHT22;717;51.522;7.266;2022-09-20T16:39:57;19.20;96.70
1447;DHT22;717;51.522;7.266;2022-09-20T16:42:24;19.10;96.70
1447;DHT22;717;51.522;7.266;2022-09-20T16:44:51;19.10;96.60
1447;DHT22;717;51.522;7.266;2022-09-20T16:47:18;19.10;96.50
1447;DHT22;717;51.522;7.266;2022-09-20T16:49:49;19.10;96.50
1447;DHT22;717;51.522;7.266;2022-09-20T16:52:17;19.00;96.40
1447;DHT22;717;51.522;7.266;2022-09-20T16:54:46;19.00;96.40
1447;DHT22;717;51.522;7.266;2022-09-20T16:57:13;19.00;96.30
1447;DHT22;717;51.522;7.266;2022-09-20T16:59:40;19.00;96.30
1447;DHT22;717;51.522;7.266;2022-09-20T17:02:09;19.00;96.30
1447;DHT22;717;51.522;7.266;2022-09-20T17:04:37;19.00;96.20
1447;DHT22;717;51.522;7.266;2022-09-20T17:07:04;18.90;96.20
1447;DHT22;717;51.522;7.266;2022-09-20T17:09:31;19.00;96.20
1447;DHT22;717;51.522;7.266;2022-09-20T17:12:00;18.90;96.30
1447;DHT22;717;51.522;7.266;2022-09-20T17:14:28;18.90;96.40
1447;DHT22;717;51.522;7.266;2022-09-20T17:16:55;18.90;96.40
1447;DHT22;717;51.522;7.266;2022-09-20T17:19:22;18.90;96.30
1447;DHT22;717;51.522;7.266;2022-09-20T17:21:50;18.90;96.40
1447;DHT22;717;51.522;7.266;2022-09-20T17:24:18;18.90;96.50
1447;DHT22;717;51.522;7.266;2022-09-20T17:26:45;18.90;96.50
1447;DHT22;717;51.522;7.266;2022-09-20T17:29:16;18.80;96.60
1447;DHT22;717;51.522;7.266;2022-09-20T17:31:44;18.80;96.60
1447;DHT22;717;51.522;7.266;2022-09-20T17:34:13;18.90;96.70
1447;DHT22;717;51.522;7.266;2022-09-20T17:36:42;18.80;96.80
1447;DHT22;717;51.522;7.266;2022-09-20T17:39:11;18.80;96.90
1447;DHT22;717;51.522;7.266;2022-09-20T17:41:39;18.70;97.10
1447;DHT22;717;51.522;7.266;2022-09-20T17:44:06;18.70;97.00
1447;DHT22;717;51.522;7.266;2022-09-20T17:46:37;18.70;96.90
1447;DHT22;717;51.522;7.266;2022-09-20T17:49:05;18.70;96.90
1447;DHT22;717;51.522;7.266;2022-09-20T17:51:36;18.60;96.90